Time,TemperatureF,DewpointF,PressureIn,WindDirection,WindDirectionDegrees,WindSpeedMPH,WindSpeedGustMPH,Humidity,HourlyPrecipIn,Conditions,Clouds,dailyrainin,SoftwareType,DateUTC
2014-01-10 00:00:00,20.0,11.2,30.57,South,180,0.0,0.0,68,0.00,,,0.00,WUHU21623XXSP,2014-01-10 05:00:00,
2014-01-10 00:02:00,20.0,11.1,30.57,South,180,0.0,0.0,68,0.00,,,0.00,WUHU21623XXSP,2014-01-10 05:02:00,
2014-01-10 00:04:00,19.9,11.1,30.56,South,180,0.0,0.0,68,0.00,,,0.00,WUHU21623XXSP,2014-01-10 05:04:00,
2014-01-10 00:06:00,19.9,11.1,30.57,South,180,0.0,0.0,68,0.00,,,0.00,WUHU21623XXSP,2014-01-10 05:06:00,
2014-01-10 00:09:00,19.9,11.1,30.57,South,180,0.0,0.0,68,0.00,,,0.00,WUHU21623XXSP,2014-01-10 05:09:00,
2014-01-10 00:11:00,19.9,11.1,30.56,South,180,0.0,0.0,68,0.00,,,0.00,WUHU21623XXSP,2014-01-10 05:11:00,
2014-01-10 00:13:00,19.9,11.1,30.56,South,180,0.0,0.0,68,0.00,,,0.00,WUHU21623XXSP,2014-01-10 05:13:00,
2014-01-10 00:15:00,19.8,11.0,30.57,South,180,0.0,0.0,68,0.00,,,0.00,WUHU21623XXSP,2014-01-10 05:15:00,
2014-01-10 00:18:00,19.8,11.0,30.56,South,180,0.0,0.0,68,0.00,,,0.00,WUHU21623XXSP,2014-01-10 05:18:00,
2014-01-10 00:19:00,19.8,11.0,30.57,South,180,0.0,0.0,68,0.00,,,0.00,WUHU21623XXSP,2014-01-10 05:19:00,
2014-01-10 00:21:00,19.8,11.0,30.57,South,180,0.0,0.0,68,0.00,,,0.00,WUHU21623XXSP,2014-01-10 05:21:00,
2014-01-10 00:24:00,19.6,10.8,30.57,South,180,0.0,0.0,68,0.00,,,0.00,WUHU21623XXSP,2014-01-10 05:24:00,
2014-01-10 00:26:00,19.6,10.8,30.56,South,180,0.0,0.0,68,0.00,,,0.00,WUHU21623XXSP,2014-01-10 05:26:00,
2014-01-10 00:28:00,19.5,10.7,30.57,South,180,0.0,0.0,68,0.00,,,0.00,WUHU21623XXSP,2014-01-10 05:28:00,
2014-01-10 00:30:00,19.5,10.7,30.57,South,180,0.0,0.0,68,0.00,,,0.00,WUHU21623XXSP,2014-01-10 05:30:00,
2014-01-10 00:32:00,19.5,10.7,30.57,South,180,0.0,0.0,68,0.00,,,0.00,WUHU21623XXSP,2014-01-10 05:32:00,
2014-01-10 00:34:00,19.5,10.7,30.56,South,180,0.0,0.0,68,0.00,,,0.00,WUHU21623XXSP,2014-01-10 05:34:00,
2014-01-10 00:36:00,19.5,10.7,30.57,South,180,0.0,0.0,68,0.00,,,0.00,WUHU21623XXSP,2014-01-10 05:36:00,
2014-01-10 00:38:00,19.4,10.7,30.57,South,180,0.0,0.0,68,0.00,,,0.00,WUHU21623XXSP,2014-01-10 05:38:00,
2014-01-10 00:41:00,19.2,10.4,30.58,South,180,0.0,0.0,68,0.00,,,0.00,WUHU21623XXSP,2014-01-10 05:41:00,
2014-01-10 00:43:00,19.2,10.4,30.57,South,180,0.0,0.0,68,0.00,,,0.00,WUHU21623XXSP,2014-01-10 05:43:00,
2014-01-10 00:46:00,19.2,10.4,30.58,South,180,0.0,0.0,68,0.00,,,0.00,WUHU21623XXSP,2014-01-10 05:46:00,
2014-01-10 00:47:00,19.2,10.4,30.57,South,180,0.0,0.0,68,0.00,,,0.00,WUHU21623XXSP,2014-01-10 05:47:00,
2014-01-10 00:49:00,19.2,10.4,30.57,South,180,0.0,0.0,68,0.00,,,0.00,WUHU21623XXSP,2014-01-10 05:49:00,
2014-01-10 00:51:00,19.1,10.4,30.57,South,180,0.0,0.0,68,0.00,,,0.00,WUHU21623XXSP,2014-01-10 05:51:00,
2014-01-10 00:54:00,19.1,10.3,30.56,South,180,0.0,0.0,68,0.00,,,0.00,WUHU21623XXSP,2014-01-10 05:54:00,
2014-01-10 00:56:00,18.9,10.1,30.56,South,180,0.0,0.0,68,0.00,,,0.00,WUHU21623XXSP,2014-01-10 05:56:00,
2014-01-10 00:58:00,18.9,10.1,30.57,South,180,0.0,0.0,68,0.00,,,0.00,WUHU21623XXSP,2014-01-10 05:58:00,
2014-01-10 01:00:00,18.9,10.1,30.57,South,180,0.0,0.0,68,0.00,,,0.00,WUHU21623XXSP,2014-01-10 06:00:00,
2014-01-10 01:02:00,18.8,10.1,30.57,South,180,0.0,0.0,68,0.00,,,0.00,WUHU21623XXSP,2014-01-10 06:02:00,
2014-01-10 01:04:00,18.8,10.1,30.57,South,180,0.0,0.0,68,0.00,,,0.00,WUHU21623XXSP,2014-01-10 06:04:00,
2014-01-10 01:06:00,18.8,10.0,30.57,South,180,0.0,0.0,68,0.00,,,0.00,WUHU21623XXSP,2014-01-10 06:06:00,
2014-01-10 01:09:00,18.8,10.0,30.57,South,180,0.0,0.0,68,0.00,,,0.00,WUHU21623XXSP,2014-01-10 06:09:00,
2014-01-10 01:11:00,18.8,10.3,30.57,South,180,0.0,0.0,69,0.00,,,0.00,WUHU21623XXSP,2014-01-10 06:11:00,
2014-01-10 01:13:00,18.7,10.3,30.57,South,180,0.0,0.0,69,0.00,,,0.00,WUHU21623XXSP,2014-01-10 06:13:00,
2014-01-10 01:15:00,18.7,10.3,30.57,South,180,0.0,0.0,69,0.00,,,0.00,WUHU21623XXSP,2014-01-10 06:15:00,
2014-01-10 01:17:00,18.7,10.3,30.58,South,180,0.0,0.0,69,0.00,,,0.00,WUHU21623XXSP,2014-01-10 06:17:00,
2014-01-10 01:19:00,18.7,10.3,30.58,South,180,0.0,0.0,69,0.00,,,0.00,WUHU21623XXSP,2014-01-10 06:19:00,
2014-01-10 01:21:00,18.7,10.2,30.58,South,180,0.0,0.0,69,0.00,,,0.00,WUHU21623XXSP,2014-01-10 06:21:00,
2014-01-10 01:24:00,18.7,10.2,30.58,South,180,0.0,0.0,69,0.00,,,0.00,WUHU21623XXSP,2014-01-10 06:24:00,
2014-01-10 01:26:00,18.6,10.2,30.58,South,180,0.0,0.0,69,0.00,,,0.00,WUHU21623XXSP,2014-01-10 06:26:00,
2014-01-10 01:28:00,18.6,10.2,30.58,South,180,0.0,0.0,69,0.00,,,0.00,WUHU21623XXSP,2014-01-10 06:28:00,
2014-01-10 01:30:00,18.6,10.2,30.58,South,180,0.0,0.0,69,0.00,,,0.00,WUHU21623XXSP,2014-01-10 06:30:00,
2014-01-10 01:32:00,18.6,10.2,30.58,South,180,0.0,0.0,69,0.00,,,0.00,WUHU21623XXSP,2014-01-10 06:32:00,
2014-01-10 01:34:00,18.6,10.1,30.59,South,180,0.0,0.0,69,0.00,,,0.00,WUHU21623XXSP,2014-01-10 06:34:00,
2014-01-10 01:36:00,18.6,10.1,30.58,South,180,0.0,0.0,69,0.00,,,0.00,WUHU21623XXSP,2014-01-10 06:36:00,
2014-01-10 01:40:00,18.5,10.1,30.59,South,180,0.0,0.0,69,0.00,,,0.00,WUHU21623XXSP,2014-01-10 06:40:00,
2014-01-10 01:41:00,18.5,10.1,30.59,South,180,0.0,0.0,69,0.00,,,0.00,WUHU21623XXSP,2014-01-10 06:41:00,
2014-01-10 01:43:00,18.5,10.1,30.59,South,180,0.0,0.0,69,0.00,,,0.00,WUHU21623XXSP,2014-01-10 06:43:00,
2014-01-10 01:45:00,18.5,10.1,30.59,South,180,0.0,0.0,69,0.00,,,0.00,WUHU21623XXSP,2014-01-10 06:45:00,
2014-01-10 01:47:00,18.5,10.0,30.59,South,180,0.0,0.0,69,0.00,,,0.00,WUHU21623XXSP,2014-01-10 06:47:00,
2014-01-10 01:49:00,18.5,10.0,30.58,South,180,0.0,0.0,69,0.00,,,0.00,WUHU21623XXSP,2014-01-10 06:49:00,
2014-01-10 01:51:00,18.4,10.0,30.59,South,180,0.0,0.0,69,0.00,,,0.00,WUHU21623XXSP,2014-01-10 06:51:00,
2014-01-10 01:53:00,18.6,10.1,30.58,South,180,0.0,0.0,69,0.00,,,0.00,WUHU21623XXSP,2014-01-10 06:53:00,
2014-01-10 01:54:00,18.3,9.9,30.58,South,180,0.0,0.0,69,0.00,,,0.00,WUHU21623XXSP,2014-01-10 06:54:00,
2014-01-10 01:56:00,18.3,9.9,30.58,South,180,0.0,0.0,69,0.00,,,0.00,WUHU21623XXSP,2014-01-10 06:56:00,
2014-01-10 01:58:00,18.3,9.9,30.58,South,180,0.0,0.0,69,0.00,,,0.00,WUHU21623XXSP,2014-01-10 06:58:00,
2014-01-10 02:00:00,18.3,9.8,30.58,South,180,0.0,0.0,69,0.00,,,0.00,WUHU21623XXSP,2014-01-10 07:00:00,
2014-01-10 02:02:00,18.2,9.8,30.58,South,180,0.0,0.0,69,0.00,,,0.00,WUHU21623XXSP,2014-01-10 07:02:00,
2014-01-10 02:04:00,18.2,9.8,30.57,South,180,0.0,0.0,69,0.00,,,0.00,WUHU21623XXSP,2014-01-10 07:04:00,
2014-01-10 02:07:00,18.2,9.8,30.57,South,180,0.0,0.0,69,0.00,,,0.00,WUHU21623XXSP,2014-01-10 07:07:00,
2014-01-10 02:09:00,18.2,9.8,30.57,South,180,0.0,0.0,69,0.00,,,0.00,WUHU21623XXSP,2014-01-10 07:09:00,
2014-01-10 02:11:00,18.2,9.8,30.57,South,180,0.0,0.0,69,0.00,,,0.00,WUHU21623XXSP,2014-01-10 07:11:00,
2014-01-10 02:13:00,18.2,9.7,30.56,South,180,0.0,0.0,69,0.00,,,0.00,WUHU21623XXSP,2014-01-10 07:13:00,
2014-01-10 02:15:00,18.1,9.7,30.56,South,180,0.0,0.0,69,0.00,,,0.00,WUHU21623XXSP,2014-01-10 07:15:00,
2014-01-10 02:17:00,18.1,9.7,30.56,South,180,0.0,0.0,69,0.00,,,0.00,WUHU21623XXSP,2014-01-10 07:17:00,
2014-01-10 02:19:00,17.9,9.5,30.56,South,180,0.0,0.0,69,0.00,,,0.00,WUHU21623XXSP,2014-01-10 07:19:00,
2014-01-10 02:21:00,17.9,9.5,30.57,South,180,0.0,0.0,69,0.00,,,0.00,WUHU21623XXSP,2014-01-10 07:21:00,
2014-01-10 02:23:00,17.9,9.5,30.57,South,180,0.0,0.0,69,0.00,,,0.00,WUHU21623XXSP,2014-01-10 07:23:00,
2014-01-10 02:26:00,17.9,9.5,30.57,South,180,0.0,0.0,69,0.00,,,0.00,WUHU21623XXSP,2014-01-10 07:26:00,
2014-01-10 02:28:00,17.8,9.4,30.57,South,180,0.0,0.0,69,0.00,,,0.00,WUHU21623XXSP,2014-01-10 07:28:00,
2014-01-10 02:30:00,17.8,9.4,30.57,South,180,0.0,0.0,69,0.00,,,0.00,WUHU21623XXSP,2014-01-10 07:30:00,
2014-01-10 02:33:00,17.8,9.4,30.57,South,180,0.0,0.0,69,0.00,,,0.00,WUHU21623XXSP,2014-01-10 07:33:00,
2014-01-10 02:34:00,17.8,9.4,30.56,South,180,0.0,0.0,69,0.00,,,0.00,WUHU21623XXSP,2014-01-10 07:34:00,
2014-01-10 02:36:00,17.8,9.4,30.56,South,180,0.0,0.0,69,0.00,,,0.00,WUHU21623XXSP,2014-01-10 07:36:00,
2014-01-10 02:38:00,17.8,9.4,30.56,South,180,0.0,0.0,69,0.00,,,0.00,WUHU21623XXSP,2014-01-10 07:38:00,
2014-01-10 02:41:00,17.7,9.3,30.55,South,180,0.0,0.0,69,0.00,,,0.00,WUHU21623XXSP,2014-01-10 07:41:00,
2014-01-10 02:43:00,17.7,9.3,30.56,South,180,0.0,0.0,69,0.00,,,0.00,WUHU21623XXSP,2014-01-10 07:43:00,
2014-01-10 02:45:00,17.7,9.3,30.56,South,180,0.0,0.0,69,0.00,,,0.00,WUHU21623XXSP,2014-01-10 07:45:00,
2014-01-10 02:47:00,17.7,9.3,30.55,South,180,0.0,0.0,69,0.00,,,0.00,WUHU21623XXSP,2014-01-10 07:47:00,
2014-01-10 02:49:00,17.7,9.3,30.56,South,180,0.0,0.0,69,0.00,,,0.00,WUHU21623XXSP,2014-01-10 07:49:00,
2014-01-10 02:51:00,17.9,9.5,30.55,South,180,0.0,0.0,69,0.00,,,0.00,WUHU21623XXSP,2014-01-10 07:51:00,
2014-01-10 02:54:00,17.8,9.4,30.55,South,180,0.0,0.0,69,0.00,,,0.00,WUHU21623XXSP,2014-01-10 07:54:00,
2014-01-10 02:56:00,17.8,9.4,30.56,South,180,0.0,0.0,69,0.00,,,0.00,WUHU21623XXSP,2014-01-10 07:56:00,
2014-01-10 02:58:00,17.8,9.4,30.55,South,180,0.0,0.0,69,0.00,,,0.00,WUHU21623XXSP,2014-01-10 07:58:00,
2014-01-10 03:00:00,17.8,9.4,30.55,South,180,0.0,0.0,69,0.00,,,0.00,WUHU21623XXSP,2014-01-10 08:00:00,
2014-01-10 03:02:00,17.6,9.2,30.55,South,180,0.0,0.0,69,0.00,,,0.00,WUHU21623XXSP,2014-01-10 08:02:00,
2014-01-10 03:04:00,17.8,9.4,30.55,South,180,0.0,0.0,69,0.00,,,0.00,WUHU21623XXSP,2014-01-10 08:04:00,
2014-01-10 03:06:00,17.7,9.3,30.56,South,180,0.0,0.0,69,0.00,,,0.00,WUHU21623XXSP,2014-01-10 08:06:00,
2014-01-10 03:09:00,17.7,9.3,30.56,South,180,0.0,0.0,69,0.00,,,0.00,WUHU21623XXSP,2014-01-10 08:09:00,
2014-01-10 03:11:00,17.7,9.3,30.56,South,180,0.0,0.0,69,0.00,,,0.00,WUHU21623XXSP,2014-01-10 08:11:00,
2014-01-10 03:13:00,17.7,9.3,30.56,South,180,0.0,0.0,69,0.00,,,0.00,WUHU21623XXSP,2014-01-10 08:13:00,
2014-01-10 03:15:00,17.7,9.3,30.56,South,180,0.0,0.0,69,0.00,,,0.00,WUHU21623XXSP,2014-01-10 08:15:00,
2014-01-10 03:17:00,17.7,9.6,30.56,South,180,0.0,0.0,70,0.00,,,0.00,WUHU21623XXSP,2014-01-10 08:17:00,
2014-01-10 03:19:00,17.7,9.6,30.56,South,180,0.0,0.0,70,0.00,,,0.00,WUHU21623XXSP,2014-01-10 08:19:00,
2014-01-10 03:21:00,17.4,9.4,30.56,South,180,0.0,0.0,70,0.00,,,0.00,WUHU21623XXSP,2014-01-10 08:21:00,
2014-01-10 03:23:00,17.6,9.5,30.55,South,180,0.0,0.0,70,0.00,,,0.00,WUHU21623XXSP,2014-01-10 08:23:00,
2014-01-10 03:26:00,17.6,9.5,30.55,South,180,0.0,0.0,70,0.00,,,0.00,WUHU21623XXSP,2014-01-10 08:26:00,
2014-01-10 03:28:00,17.6,9.5,30.56,South,180,0.0,0.0,70,0.00,,,0.00,WUHU21623XXSP,2014-01-10 08:28:00,
2014-01-10 03:30:00,17.6,9.5,30.55,South,180,0.0,0.0,70,0.00,,,0.00,WUHU21623XXSP,2014-01-10 08:30:00,
2014-01-10 03:32:00,17.6,9.5,30.55,South,180,0.0,0.0,70,0.00,,,0.00,WUHU21623XXSP,2014-01-10 08:32:00,
2014-01-10 03:34:00,17.5,9.5,30.55,South,180,0.0,0.0,70,0.00,,,0.00,WUHU21623XXSP,2014-01-10 08:34:00,
2014-01-10 03:36:00,17.5,9.5,30.55,South,180,0.0,0.0,70,0.00,,,0.00,WUHU21623XXSP,2014-01-10 08:36:00,
2014-01-10 03:38:00,17.5,9.4,30.55,South,180,0.0,0.0,70,0.00,,,0.00,WUHU21623XXSP,2014-01-10 08:38:00,
2014-01-10 03:41:00,17.5,9.4,30.54,South,180,0.0,0.0,70,0.00,,,0.00,WUHU21623XXSP,2014-01-10 08:41:00,
2014-01-10 03:43:00,17.5,9.4,30.55,South,180,0.0,0.0,70,0.00,,,0.00,WUHU21623XXSP,2014-01-10 08:43:00,
2014-01-10 03:45:00,17.5,9.4,30.54,South,180,0.0,0.0,70,0.00,,,0.00,WUHU21623XXSP,2014-01-10 08:45:00,
2014-01-10 03:47:00,17.5,9.4,30.55,South,180,0.0,0.0,70,0.00,,,0.00,WUHU21623XXSP,2014-01-10 08:47:00,
2014-01-10 03:49:00,17.4,9.4,30.55,South,180,0.0,0.0,70,0.00,,,0.00,WUHU21623XXSP,2014-01-10 08:49:00,
2014-01-10 03:51:00,17.4,9.4,30.55,South,180,0.0,0.0,70,0.00,,,0.00,WUHU21623XXSP,2014-01-10 08:51:00,
2014-01-10 03:53:00,17.4,9.3,30.55,South,180,0.0,0.0,70,0.00,,,0.00,WUHU21623XXSP,2014-01-10 08:53:00,
2014-01-10 03:56:00,17.4,9.3,30.55,South,180,0.0,0.0,70,0.00,,,0.00,WUHU21623XXSP,2014-01-10 08:56:00,
2014-01-10 03:58:00,17.4,9.3,30.55,South,180,0.0,0.0,70,0.00,,,0.00,WUHU21623XXSP,2014-01-10 08:58:00,
2014-01-10 04:00:00,17.4,9.3,30.55,South,180,0.0,0.0,70,0.00,,,0.00,WUHU21623XXSP,2014-01-10 09:00:00,
2014-01-10 04:02:00,17.4,9.4,30.55,South,180,0.0,0.0,70,0.00,,,0.00,WUHU21623XXSP,2014-01-10 09:02:00,
2014-01-10 04:04:00,17.4,9.4,30.55,South,180,0.0,0.0,70,0.00,,,0.00,WUHU21623XXSP,2014-01-10 09:04:00,
2014-01-10 04:06:00,17.4,9.3,30.55,South,180,0.0,0.0,70,0.00,,,0.00,WUHU21623XXSP,2014-01-10 09:06:00,
2014-01-10 04:09:00,17.4,9.6,30.55,South,180,0.0,0.0,71,0.00,,,0.00,WUHU21623XXSP,2014-01-10 09:09:00,
2014-01-10 04:11:00,17.6,9.8,30.54,South,180,0.0,0.0,71,0.00,,,0.00,WUHU21623XXSP,2014-01-10 09:11:00,
2014-01-10 04:13:00,17.6,9.8,30.55,South,180,0.0,0.0,71,0.00,,,0.00,WUHU21623XXSP,2014-01-10 09:13:00,
2014-01-10 04:17:00,17.5,9.8,30.54,South,180,0.0,0.0,71,0.00,,,0.00,WUHU21623XXSP,2014-01-10 09:17:00,
2014-01-10 04:19:00,17.7,10.0,30.54,South,180,0.0,0.0,71,0.00,,,0.00,WUHU21623XXSP,2014-01-10 09:19:00,
2014-01-10 04:21:00,17.7,10.0,30.53,South,180,0.0,0.0,71,0.00,,,0.00,WUHU21623XXSP,2014-01-10 09:21:00,
2014-01-10 04:23:00,17.7,9.9,30.53,South,180,0.0,0.0,71,0.00,,,0.00,WUHU21623XXSP,2014-01-10 09:23:00,
2014-01-10 04:26:00,17.7,9.9,30.53,South,180,0.0,0.0,71,0.00,,,0.00,WUHU21623XXSP,2014-01-10 09:26:00,
2014-01-10 04:28:00,17.7,9.9,30.53,South,180,0.0,0.0,71,0.00,,,0.00,WUHU21623XXSP,2014-01-10 09:28:00,
2014-01-10 04:30:00,17.7,9.9,30.53,South,180,0.0,0.0,71,0.00,,,0.00,WUHU21623XXSP,2014-01-10 09:30:00,
2014-01-10 04:32:00,17.6,9.9,30.53,South,180,0.0,0.0,71,0.00,,,0.00,WUHU21623XXSP,2014-01-10 09:32:00,
2014-01-10 04:34:00,17.6,9.9,30.53,South,180,0.0,0.0,71,0.00,,,0.00,WUHU21623XXSP,2014-01-10 09:34:00,
2014-01-10 04:36:00,17.6,9.9,30.53,South,180,0.0,0.0,71,0.00,,,0.00,WUHU21623XXSP,2014-01-10 09:36:00,
2014-01-10 04:38:00,17.6,9.8,30.53,South,180,0.0,0.0,71,0.00,,,0.00,WUHU21623XXSP,2014-01-10 09:38:00,
2014-01-10 04:41:00,17.6,9.8,30.53,South,180,0.0,0.0,71,0.00,,,0.00,WUHU21623XXSP,2014-01-10 09:41:00,
2014-01-10 04:43:00,17.6,9.8,30.53,South,180,0.0,0.0,71,0.00,,,0.00,WUHU21623XXSP,2014-01-10 09:43:00,
2014-01-10 04:45:00,17.6,9.8,30.53,South,180,0.0,0.0,71,0.00,,,0.00,WUHU21623XXSP,2014-01-10 09:45:00,
2014-01-10 04:47:00,17.5,9.8,30.53,South,180,0.0,0.0,71,0.00,,,0.00,WUHU21623XXSP,2014-01-10 09:47:00,
2014-01-10 04:49:00,17.5,9.8,30.53,South,180,0.0,0.0,71,0.00,,,0.00,WUHU21623XXSP,2014-01-10 09:49:00,
2014-01-10 04:51:00,17.5,9.8,30.53,South,180,0.0,0.0,71,0.00,,,0.00,WUHU21623XXSP,2014-01-10 09:51:00,
2014-01-10 04:53:00,17.5,9.8,30.53,South,180,0.0,0.0,71,0.00,,,0.00,WUHU21623XXSP,2014-01-10 09:53:00,
2014-01-10 04:55:00,17.7,9.9,30.53,South,180,0.0,0.0,71,0.00,,,0.00,WUHU21623XXSP,2014-01-10 09:55:00,
2014-01-10 04:58:00,17.7,9.9,30.52,South,180,0.0,0.0,71,0.00,,,0.00,WUHU21623XXSP,2014-01-10 09:58:00,
2014-01-10 05:00:00,17.7,9.9,30.52,South,180,0.0,0.0,71,0.00,,,0.00,WUHU21623XXSP,2014-01-10 10:00:00,
2014-01-10 05:02:00,17.7,9.9,30.53,South,180,0.0,0.0,71,0.00,,,0.00,WUHU21623XXSP,2014-01-10 10:02:00,
2014-01-10 05:04:00,17.6,9.9,30.53,South,180,0.0,0.0,71,0.00,,,0.00,WUHU21623XXSP,2014-01-10 10:04:00,
2014-01-10 05:08:00,17.6,9.9,30.53,South,180,0.0,0.0,71,0.00,,,0.00,WUHU21623XXSP,2014-01-10 10:08:00,
2014-01-10 05:11:00,17.6,9.8,30.53,South,180,0.0,0.0,71,0.00,,,0.00,WUHU21623XXSP,2014-01-10 10:11:00,
2014-01-10 05:13:00,17.6,9.8,30.53,South,180,0.0,0.0,71,0.00,,,0.00,WUHU21623XXSP,2014-01-10 10:13:00,
2014-01-10 05:15:00,17.6,9.8,30.53,South,180,0.0,0.0,71,0.00,,,0.00,WUHU21623XXSP,2014-01-10 10:15:00,
2014-01-10 05:17:00,17.6,9.8,30.53,South,180,0.0,0.0,71,0.00,,,0.00,WUHU21623XXSP,2014-01-10 10:17:00,
2014-01-10 05:19:00,17.9,10.1,30.53,South,180,0.0,0.0,71,0.00,,,0.00,WUHU21623XXSP,2014-01-10 10:19:00,
2014-01-10 05:21:00,17.8,10.4,30.53,South,180,0.0,0.0,72,0.00,,,0.00,WUHU21623XXSP,2014-01-10 10:21:00,
2014-01-10 05:23:00,17.8,10.4,30.53,South,180,0.0,0.0,72,0.00,,,0.00,WUHU21623XXSP,2014-01-10 10:23:00,
2014-01-10 05:26:00,17.8,10.4,30.53,South,180,0.0,0.0,72,0.00,,,0.00,WUHU21623XXSP,2014-01-10 10:26:00,
2014-01-10 05:28:00,17.8,10.3,30.53,South,180,0.0,0.0,72,0.00,,,0.00,WUHU21623XXSP,2014-01-10 10:28:00,
2014-01-10 05:30:00,17.8,10.3,30.53,South,180,0.0,0.0,72,0.00,,,0.00,WUHU21623XXSP,2014-01-10 10:30:00,
2014-01-10 05:32:00,18.0,10.5,30.53,South,180,0.0,0.0,72,0.00,,,0.00,WUHU21623XXSP,2014-01-10 10:32:00,
2014-01-10 05:34:00,18.0,10.5,30.53,South,180,0.0,0.0,72,0.00,,,0.00,WUHU21623XXSP,2014-01-10 10:34:00,
2014-01-10 05:36:00,18.0,10.5,30.53,South,180,0.0,0.0,72,0.00,,,0.00,WUHU21623XXSP,2014-01-10 10:36:00,
2014-01-10 05:38:00,17.9,10.5,30.53,South,180,0.0,0.0,72,0.00,,,0.00,WUHU21623XXSP,2014-01-10 10:38:00,
2014-01-10 05:40:00,18.3,10.9,30.53,South,180,0.0,0.0,72,0.00,,,0.00,WUHU21623XXSP,2014-01-10 10:40:00,
2014-01-10 05:43:00,18.3,10.8,30.53,South,180,0.0,0.0,72,0.00,,,0.00,WUHU21623XXSP,2014-01-10 10:43:00,
2014-01-10 05:45:00,18.3,10.8,30.53,South,180,0.0,0.0,72,0.00,,,0.00,WUHU21623XXSP,2014-01-10 10:45:00,
2014-01-10 05:47:00,18.3,11.1,30.53,South,180,0.0,0.0,73,0.00,,,0.00,WUHU21623XXSP,2014-01-10 10:47:00,
2014-01-10 05:49:00,18.3,11.1,30.53,South,180,0.0,0.0,73,0.00,,,0.00,WUHU21623XXSP,2014-01-10 10:49:00,
2014-01-10 05:51:00,18.5,11.3,30.53,South,180,0.0,0.0,73,0.00,,,0.00,WUHU21623XXSP,2014-01-10 10:51:00,
2014-01-10 05:53:00,18.5,11.3,30.53,South,180,0.0,0.0,73,0.00,,,0.00,WUHU21623XXSP,2014-01-10 10:53:00,
2014-01-10 05:56:00,18.5,11.4,30.53,South,180,0.0,0.0,73,0.00,,,0.00,WUHU21623XXSP,2014-01-10 10:56:00,
2014-01-10 05:59:00,18.5,11.4,30.53,South,180,0.0,0.0,73,0.00,,,0.00,WUHU21623XXSP,2014-01-10 10:59:00,
2014-01-10 06:00:00,18.5,11.3,30.52,South,180,0.0,0.0,73,0.00,,,0.00,WUHU21623XXSP,2014-01-10 11:00:00,
2014-01-10 06:02:00,18.7,11.5,30.53,South,180,0.0,0.0,73,0.00,,,0.00,WUHU21623XXSP,2014-01-10 11:02:00,
2014-01-10 06:04:00,18.7,11.5,30.53,South,180,0.0,0.0,73,0.00,,,0.00,WUHU21623XXSP,2014-01-10 11:04:00,
2014-01-10 06:06:00,18.7,11.5,30.53,South,180,0.0,0.0,73,0.00,,,0.00,WUHU21623XXSP,2014-01-10 11:06:00,
2014-01-10 06:08:00,18.7,11.5,30.52,South,180,0.0,0.0,73,0.00,,,0.00,WUHU21623XXSP,2014-01-10 11:08:00,
2014-01-10 06:11:00,18.7,11.5,30.52,South,180,0.0,0.0,73,0.00,,,0.00,WUHU21623XXSP,2014-01-10 11:11:00,
2014-01-10 06:13:00,18.7,11.5,30.52,South,180,0.0,0.0,73,0.00,,,0.00,WUHU21623XXSP,2014-01-10 11:13:00,
2014-01-10 06:15:00,18.6,11.5,30.51,South,180,0.0,0.0,73,0.00,,,0.00,WUHU21623XXSP,2014-01-10 11:15:00,
2014-01-10 06:17:00,18.8,11.6,30.51,South,180,0.7,0.7,73,0.00,,,0.00,WUHU21623XXSP,2014-01-10 11:17:00,
2014-01-10 06:19:00,18.8,11.9,30.51,South,180,0.0,0.7,74,0.00,,,0.00,WUHU21623XXSP,2014-01-10 11:19:00,
2014-01-10 06:21:00,19.0,12.1,30.50,South,180,0.0,0.7,74,0.00,,,0.00,WUHU21623XXSP,2014-01-10 11:21:00,
2014-01-10 06:23:00,19.0,12.1,30.50,South,180,0.0,0.7,74,0.00,,,0.00,WUHU21623XXSP,2014-01-10 11:23:00,
2014-01-10 06:26:00,19.0,12.1,30.50,South,180,0.0,0.7,74,0.00,,,0.00,WUHU21623XXSP,2014-01-10 11:26:00,
2014-01-10 06:28:00,19.0,12.1,30.50,South,180,0.0,0.0,74,0.00,,,0.00,WUHU21623XXSP,2014-01-10 11:28:00,
2014-01-10 06:30:00,19.0,12.1,30.50,South,180,0.0,0.0,74,0.00,,,0.00,WUHU21623XXSP,2014-01-10 11:30:00,
2014-01-10 06:32:00,19.0,12.1,30.50,South,180,0.0,0.0,74,0.00,,,0.00,WUHU21623XXSP,2014-01-10 11:32:00,
2014-01-10 06:34:00,19.2,12.3,30.50,South,180,0.0,0.0,74,0.00,,,0.00,WUHU21623XXSP,2014-01-10 11:34:00,
2014-01-10 06:36:00,19.2,12.3,30.50,South,180,0.0,0.0,74,0.00,,,0.00,WUHU21623XXSP,2014-01-10 11:36:00,
2014-01-10 06:38:00,19.2,12.3,30.50,South,180,0.0,0.0,74,0.00,,,0.00,WUHU21623XXSP,2014-01-10 11:38:00,
2014-01-10 06:41:00,19.4,12.5,30.50,South,180,0.0,0.0,74,0.00,,,0.00,WUHU21623XXSP,2014-01-10 11:41:00,
2014-01-10 06:43:00,19.4,12.5,30.50,South,180,0.0,0.0,74,0.00,,,0.00,WUHU21623XXSP,2014-01-10 11:43:00,
2014-01-10 06:45:00,19.4,12.5,30.50,South,180,0.0,0.0,74,0.00,,,0.00,WUHU21623XXSP,2014-01-10 11:45:00,
2014-01-10 06:47:00,19.4,12.5,30.50,South,180,0.0,0.0,74,0.00,,,0.00,WUHU21623XXSP,2014-01-10 11:47:00,
2014-01-10 06:51:00,19.4,12.5,30.50,South,180,0.0,0.0,74,0.00,,,0.00,WUHU21623XXSP,2014-01-10 11:51:00,
2014-01-10 06:53:00,19.6,12.7,30.50,South,180,0.0,0.0,74,0.00,,,0.00,WUHU21623XXSP,2014-01-10 11:53:00,
2014-01-10 06:56:00,19.6,12.6,30.49,South,180,0.0,0.0,74,0.00,,,0.00,WUHU21623XXSP,2014-01-10 11:56:00,
2014-01-10 06:58:00,19.5,12.6,30.49,South,180,0.0,0.0,74,0.00,,,0.00,WUHU21623XXSP,2014-01-10 11:58:00,
2014-01-10 07:00:00,19.7,12.8,30.49,South,180,0.0,0.0,74,0.00,,,0.00,WUHU21623XXSP,2014-01-10 12:00:00,
2014-01-10 07:02:00,19.7,12.8,30.49,South,180,0.0,0.0,74,0.00,,,0.00,WUHU21623XXSP,2014-01-10 12:02:00,
2014-01-10 07:04:00,19.7,12.8,30.49,South,180,0.0,0.0,74,0.00,,,0.00,WUHU21623XXSP,2014-01-10 12:04:00,
2014-01-10 07:06:00,19.9,13.0,30.49,South,180,0.0,0.0,74,0.00,,,0.00,WUHU21623XXSP,2014-01-10 12:06:00,
2014-01-10 07:08:00,19.9,13.0,30.49,South,180,0.0,0.0,74,0.00,,,0.00,WUHU21623XXSP,2014-01-10 12:08:00,
2014-01-10 07:11:00,19.9,13.0,30.49,South,180,0.0,0.0,74,0.00,,,0.00,WUHU21623XXSP,2014-01-10 12:11:00,
2014-01-10 07:13:00,19.9,13.0,30.49,South,180,0.0,0.0,74,0.00,,,0.00,WUHU21623XXSP,2014-01-10 12:13:00,
2014-01-10 07:15:00,20.0,13.0,30.49,South,180,0.0,0.0,74,0.00,,,0.00,WUHU21623XXSP,2014-01-10 12:15:00,
2014-01-10 07:17:00,20.0,13.0,30.49,South,180,0.0,0.0,74,0.00,,,0.00,WUHU21623XXSP,2014-01-10 12:17:00,
2014-01-10 07:19:00,20.0,13.3,30.49,South,180,0.0,0.0,75,0.00,,,0.00,WUHU21623XXSP,2014-01-10 12:19:00,
2014-01-10 07:21:00,19.9,13.3,30.49,South,180,0.0,0.0,75,0.00,,,0.00,WUHU21623XXSP,2014-01-10 12:21:00,
2014-01-10 07:23:00,19.9,13.3,30.49,South,180,0.0,0.0,75,0.00,,,0.00,WUHU21623XXSP,2014-01-10 12:23:00,
2014-01-10 07:26:00,19.9,13.3,30.49,South,180,0.0,0.0,75,0.00,,,0.00,WUHU21623XXSP,2014-01-10 12:26:00,
2014-01-10 07:28:00,20.1,13.5,30.49,South,180,0.0,0.0,75,0.00,,,0.00,WUHU21623XXSP,2014-01-10 12:28:00,
2014-01-10 07:30:00,20.1,13.5,30.49,South,180,0.0,0.0,75,0.00,,,0.00,WUHU21623XXSP,2014-01-10 12:30:00,
2014-01-10 07:32:00,20.3,13.7,30.49,South,180,0.0,0.0,75,0.00,,,0.00,WUHU21623XXSP,2014-01-10 12:32:00,
2014-01-10 07:34:00,20.1,13.5,30.49,South,180,0.0,0.0,75,0.00,,,0.00,WUHU21623XXSP,2014-01-10 12:34:00,
2014-01-10 07:36:00,20.3,13.7,30.49,South,180,0.0,0.0,75,0.00,,,0.00,WUHU21623XXSP,2014-01-10 12:36:00,
2014-01-10 07:38:00,20.3,13.6,30.49,South,180,0.0,0.0,75,0.00,,,0.00,WUHU21623XXSP,2014-01-10 12:38:00,
2014-01-10 07:41:00,20.3,13.6,30.48,South,180,0.0,0.0,75,0.00,,,0.00,WUHU21623XXSP,2014-01-10 12:41:00,
2014-01-10 07:43:00,20.5,13.8,30.48,South,180,0.0,0.0,75,0.00,,,0.00,WUHU21623XXSP,2014-01-10 12:43:00,
2014-01-10 07:45:00,20.5,13.8,30.48,South,180,0.0,0.0,75,0.00,,,0.00,WUHU21623XXSP,2014-01-10 12:45:00,
2014-01-10 07:47:00,20.4,14.1,30.48,South,180,0.0,0.0,76,0.00,,,0.00,WUHU21623XXSP,2014-01-10 12:47:00,
2014-01-10 07:49:00,20.6,14.3,30.48,South,180,0.0,0.0,76,0.00,,,0.00,WUHU21623XXSP,2014-01-10 12:49:00,
2014-01-10 07:51:00,20.6,14.3,30.48,South,180,0.0,0.0,76,0.00,,,0.00,WUHU21623XXSP,2014-01-10 12:51:00,
2014-01-10 07:53:00,20.7,14.4,30.48,South,180,0.0,0.0,76,0.00,,,0.00,WUHU21623XXSP,2014-01-10 12:53:00,
2014-01-10 07:56:00,20.7,14.4,30.48,South,180,0.0,0.0,76,0.00,,,0.00,WUHU21623XXSP,2014-01-10 12:56:00,
2014-01-10 07:58:00,20.7,14.4,30.48,South,180,0.0,0.0,76,0.00,,,0.00,WUHU21623XXSP,2014-01-10 12:58:00,
2014-01-10 08:00:00,20.7,14.4,30.48,South,180,0.0,0.0,76,0.00,,,0.00,WUHU21623XXSP,2014-01-10 13:00:00,
2014-01-10 08:02:00,20.9,14.5,30.48,South,180,0.0,0.0,76,0.00,,,0.00,WUHU21623XXSP,2014-01-10 13:02:00,
2014-01-10 08:04:00,20.9,14.5,30.48,South,180,0.0,0.0,76,0.00,,,0.00,WUHU21623XXSP,2014-01-10 13:04:00,
2014-01-10 08:07:00,20.9,14.5,30.48,South,180,0.0,0.0,76,0.00,,,0.00,WUHU21623XXSP,2014-01-10 13:07:00,
2014-01-10 08:08:00,20.9,14.5,30.48,South,180,0.0,0.0,76,0.00,,,0.00,WUHU21623XXSP,2014-01-10 13:08:00,
2014-01-10 08:11:00,20.9,14.5,30.48,South,180,0.0,0.0,76,0.00,,,0.00,WUHU21623XXSP,2014-01-10 13:11:00,
2014-01-10 08:13:00,21.3,14.9,30.48,South,180,0.0,0.0,76,0.00,,,0.00,WUHU21623XXSP,2014-01-10 13:13:00,
2014-01-10 08:15:00,21.3,14.9,30.48,South,180,0.0,0.0,76,0.00,,,0.00,WUHU21623XXSP,2014-01-10 13:15:00,
2014-01-10 08:17:00,21.2,14.9,30.48,South,180,0.0,0.0,76,0.00,,,0.00,WUHU21623XXSP,2014-01-10 13:17:00,
2014-01-10 08:20:00,21.2,14.9,30.47,South,180,0.0,0.0,76,0.00,,,0.00,WUHU21623XXSP,2014-01-10 13:20:00,
2014-01-10 08:21:00,21.4,15.1,30.47,South,180,0.0,0.0,76,0.00,,,0.00,WUHU21623XXSP,2014-01-10 13:21:00,
2014-01-10 08:23:00,21.2,14.9,30.47,South,180,0.0,0.0,76,0.00,,,0.00,WUHU21623XXSP,2014-01-10 13:23:00,
2014-01-10 08:26:00,21.4,15.4,30.47,South,180,0.0,0.0,77,0.00,,,0.00,WUHU21623XXSP,2014-01-10 13:26:00,
2014-01-10 08:28:00,21.4,15.3,30.47,South,180,0.0,0.0,77,0.00,,,0.00,WUHU21623XXSP,2014-01-10 13:28:00,
2014-01-10 08:30:00,21.5,15.4,30.47,South,180,0.0,0.0,77,0.00,,,0.00,WUHU21623XXSP,2014-01-10 13:30:00,
2014-01-10 08:32:00,21.5,15.4,30.47,South,180,0.0,0.0,77,0.00,,,0.00,WUHU21623XXSP,2014-01-10 13:32:00,
2014-01-10 08:34:00,21.5,15.4,30.47,South,180,0.0,0.0,77,0.00,,,0.00,WUHU21623XXSP,2014-01-10 13:34:00,
2014-01-10 08:36:00,21.7,15.6,30.47,South,180,0.0,0.0,77,0.00,,,0.00,WUHU21623XXSP,2014-01-10 13:36:00,
2014-01-10 08:38:00,21.7,15.6,30.48,South,180,0.0,0.0,77,0.00,,,0.00,WUHU21623XXSP,2014-01-10 13:38:00,
2014-01-10 08:41:00,21.7,15.6,30.48,South,180,0.0,0.0,77,0.00,,,0.00,WUHU21623XXSP,2014-01-10 13:41:00,
2014-01-10 08:43:00,21.9,15.8,30.48,South,180,0.0,0.0,77,0.00,,,0.00,WUHU21623XXSP,2014-01-10 13:43:00,
2014-01-10 08:45:00,21.9,15.8,30.48,South,180,0.0,0.0,77,0.00,,,0.00,WUHU21623XXSP,2014-01-10 13:45:00,
2014-01-10 08:47:00,21.9,15.8,30.48,South,180,0.0,0.0,77,0.00,,,0.00,WUHU21623XXSP,2014-01-10 13:47:00,
2014-01-10 08:49:00,21.9,15.8,30.48,South,180,0.0,0.0,77,0.00,,,0.00,WUHU21623XXSP,2014-01-10 13:49:00,
2014-01-10 08:51:00,22.1,16.0,30.48,South,180,0.0,0.0,77,0.00,,,0.00,WUHU21623XXSP,2014-01-10 13:51:00,
2014-01-10 08:53:00,22.0,16.0,30.48,South,180,0.0,0.0,77,0.00,,,0.00,WUHU21623XXSP,2014-01-10 13:53:00,
2014-01-10 08:56:00,22.0,16.0,30.48,South,180,0.0,0.0,77,0.00,,,0.00,WUHU21623XXSP,2014-01-10 13:56:00,
2014-01-10 08:58:00,22.0,16.0,30.48,South,180,0.0,0.0,77,0.00,,,0.00,WUHU21623XXSP,2014-01-10 13:58:00,
2014-01-10 09:00:00,22.2,16.1,30.48,South,180,0.0,0.0,77,0.00,,,0.00,WUHU21623XXSP,2014-01-10 14:00:00,
2014-01-10 09:02:00,22.3,16.2,30.48,South,180,0.0,0.0,77,0.00,,,0.00,WUHU21623XXSP,2014-01-10 14:02:00,
2014-01-10 09:04:00,22.3,16.2,30.47,South,180,0.0,0.0,77,0.00,,,0.00,WUHU21623XXSP,2014-01-10 14:04:00,
2014-01-10 09:06:00,22.5,16.4,30.48,South,180,0.0,0.0,77,0.00,,,0.00,WUHU21623XXSP,2014-01-10 14:06:00,
2014-01-10 09:10:00,22.5,16.4,30.48,South,180,0.0,0.0,77,0.00,,,0.00,WUHU21623XXSP,2014-01-10 14:10:00,
2014-01-10 09:11:00,22.5,16.4,30.48,South,180,0.0,0.0,77,0.00,,,0.00,WUHU21623XXSP,2014-01-10 14:11:00,
2014-01-10 09:13:00,22.5,16.4,30.48,South,180,0.0,0.0,77,0.00,,,0.00,WUHU21623XXSP,2014-01-10 14:13:00,
2014-01-10 09:15:00,22.5,16.4,30.48,South,180,0.0,0.0,77,0.00,,,0.00,WUHU21623XXSP,2014-01-10 14:15:00,
2014-01-10 09:17:00,22.7,16.6,30.48,South,180,0.0,0.0,77,0.00,,,0.00,WUHU21623XXSP,2014-01-10 14:17:00,
2014-01-10 09:19:00,22.7,16.6,30.48,South,180,0.0,0.0,77,0.00,,,0.00,WUHU21623XXSP,2014-01-10 14:19:00,
2014-01-10 09:21:00,22.9,16.8,30.48,South,180,0.0,0.0,77,0.00,,,0.00,WUHU21623XXSP,2014-01-10 14:21:00,
2014-01-10 09:23:00,22.9,16.8,30.48,South,180,0.0,0.0,77,0.00,,,0.00,WUHU21623XXSP,2014-01-10 14:23:00,
2014-01-10 09:26:00,22.9,16.8,30.48,South,180,0.0,0.0,77,0.00,,,0.00,WUHU21623XXSP,2014-01-10 14:26:00,
2014-01-10 09:28:00,22.9,16.8,30.48,South,180,0.0,0.0,77,0.00,,,0.00,WUHU21623XXSP,2014-01-10 14:28:00,
2014-01-10 09:30:00,23.1,17.0,30.47,South,180,0.0,0.0,77,0.00,,,0.00,WUHU21623XXSP,2014-01-10 14:30:00,
2014-01-10 09:32:00,23.1,17.0,30.48,South,180,0.0,0.0,77,0.00,,,0.00,WUHU21623XXSP,2014-01-10 14:32:00,
2014-01-10 09:35:00,23.2,17.0,30.47,South,180,0.0,0.0,77,0.00,,,0.00,WUHU21623XXSP,2014-01-10 14:35:00,
2014-01-10 09:36:00,23.2,17.0,30.47,South,180,0.0,0.0,77,0.00,,,0.00,WUHU21623XXSP,2014-01-10 14:36:00,
2014-01-10 09:38:00,23.2,17.3,30.47,South,180,0.0,0.0,78,0.00,,,0.00,WUHU21623XXSP,2014-01-10 14:38:00,
2014-01-10 09:40:00,23.2,17.3,30.47,South,180,0.0,0.0,78,0.00,,,0.00,WUHU21623XXSP,2014-01-10 14:40:00,
2014-01-10 09:43:00,23.4,17.5,30.47,South,180,0.0,0.0,78,0.00,,,0.00,WUHU21623XXSP,2014-01-10 14:43:00,
2014-01-10 09:45:00,23.4,17.5,30.48,South,180,0.0,0.0,78,0.00,,,0.00,WUHU21623XXSP,2014-01-10 14:45:00,
2014-01-10 09:47:00,23.3,17.5,30.47,South,180,0.0,0.0,78,0.00,,,0.00,WUHU21623XXSP,2014-01-10 14:47:00,
2014-01-10 09:49:00,23.5,17.7,30.47,South,180,0.0,0.0,78,0.00,,,0.00,WUHU21623XXSP,2014-01-10 14:49:00,
2014-01-10 09:51:00,23.5,17.7,30.47,South,180,0.0,0.0,78,0.00,,,0.00,WUHU21623XXSP,2014-01-10 14:51:00,
2014-01-10 09:53:00,23.7,17.9,30.47,South,180,0.0,0.0,78,0.00,,,0.00,WUHU21623XXSP,2014-01-10 14:53:00,
2014-01-10 09:55:00,23.7,17.9,30.47,South,180,0.0,0.0,78,0.00,,,0.00,WUHU21623XXSP,2014-01-10 14:55:00,
2014-01-10 09:58:00,23.7,17.9,30.47,South,180,0.0,0.0,78,0.00,,,0.00,WUHU21623XXSP,2014-01-10 14:58:00,
2014-01-10 10:01:00,24.0,18.2,30.47,South,180,0.0,0.0,78,0.00,,,0.00,WUHU21623XXSP,2014-01-10 15:01:00,
2014-01-10 10:15:00,24.0,18.2,30.47,South,180,0.0,0.0,78,0.00,,,0.00,WUHU21623XXSP,2014-01-10 15:15:00,
2014-01-10 10:20:00,24.2,18.4,30.47,South,180,0.0,0.0,78,0.00,,,0.00,WUHU21623XXSP,2014-01-10 15:20:00,
2014-01-10 10:25:00,24.6,18.7,30.47,South,180,0.0,0.0,78,0.00,,,0.00,WUHU21623XXSP,2014-01-10 15:25:00,
2014-01-10 10:30:00,24.6,18.7,30.46,South,180,0.0,0.0,78,0.00,,,0.00,WUHU21623XXSP,2014-01-10 15:30:00,
2014-01-10 10:35:00,24.8,19.2,30.46,South,180,0.0,0.0,79,0.00,,,0.00,WUHU21623XXSP,2014-01-10 15:35:00,
2014-01-10 10:40:00,25.1,19.2,30.46,South,180,0.0,0.0,78,0.00,,,0.00,WUHU21623XXSP,2014-01-10 15:40:00,
2014-01-10 10:45:00,25.1,19.2,30.46,South,180,0.0,0.0,78,0.00,,,0.00,WUHU21623XXSP,2014-01-10 15:45:00,
2014-01-10 10:50:00,25.3,19.4,30.46,South,180,0.0,0.0,78,0.00,,,0.00,WUHU21623XXSP,2014-01-10 15:50:00,
2014-01-10 10:55:00,25.5,19.9,30.45,South,180,0.0,0.0,79,0.00,,,0.00,WUHU21623XXSP,2014-01-10 15:55:00,
2014-01-10 11:00:00,25.5,19.9,30.45,South,180,0.0,0.0,79,0.00,,,0.00,WUHU21623XXSP,2014-01-10 16:00:00,
2014-01-10 11:05:00,25.7,20.1,30.45,South,180,0.0,0.0,79,0.00,,,0.00,WUHU21623XXSP,2014-01-10 16:05:00,
2014-01-10 11:10:00,25.8,20.2,30.44,South,180,0.0,0.0,79,0.00,,,0.00,WUHU21623XXSP,2014-01-10 16:10:00,
2014-01-10 11:15:00,25.8,20.2,30.44,South,180,0.0,0.0,79,0.00,,,0.00,WUHU21623XXSP,2014-01-10 16:15:00,
2014-01-10 11:20:00,26.0,20.4,30.43,South,180,0.0,0.0,79,0.00,,,0.00,WUHU21623XXSP,2014-01-10 16:20:00,
2014-01-10 11:25:00,26.2,20.9,30.43,South,180,0.0,0.0,80,0.00,,,0.00,WUHU21623XXSP,2014-01-10 16:25:00,
2014-01-10 11:30:00,26.4,21.1,30.43,South,180,0.0,0.0,80,0.00,,,0.00,WUHU21623XXSP,2014-01-10 16:30:00,
2014-01-10 11:35:00,26.4,21.1,30.42,South,180,0.0,0.0,80,0.00,,,0.00,WUHU21623XXSP,2014-01-10 16:35:00,
2014-01-10 11:40:00,26.6,21.3,30.42,South,180,0.0,0.0,80,0.00,,,0.00,WUHU21623XXSP,2014-01-10 16:40:00,
2014-01-10 11:45:00,26.7,21.4,30.42,South,180,0.0,0.0,80,0.00,,,0.00,WUHU21623XXSP,2014-01-10 16:45:00,
2014-01-10 11:50:00,26.7,21.4,30.41,South,180,0.0,0.0,80,0.00,,,0.00,WUHU21623XXSP,2014-01-10 16:50:00,
2014-01-10 11:55:00,26.7,21.7,30.41,South,180,0.0,0.0,81,0.00,,,0.00,WUHU21623XXSP,2014-01-10 16:55:00,
2014-01-10 12:00:00,26.7,21.7,30.40,South,180,0.0,0.0,81,0.00,,,0.00,WUHU21623XXSP,2014-01-10 17:00:00,
2014-01-10 12:05:00,27.1,22.1,30.40,SSE,157,0.0,0.0,81,0.00,,,0.00,WUHU21623XXSP,2014-01-10 17:05:00,
2014-01-10 12:10:00,27.1,22.1,30.40,SSE,157,0.0,0.0,81,0.00,,,0.00,WUHU21623XXSP,2014-01-10 17:10:00,
2014-01-10 12:15:00,27.2,22.1,30.39,SSE,157,0.0,0.0,81,0.00,,,0.00,WUHU21623XXSP,2014-01-10 17:15:00,
2014-01-10 12:20:00,27.4,22.3,30.39,SSE,157,0.0,0.0,81,0.00,,,0.00,WUHU21623XXSP,2014-01-10 17:20:00,
2014-01-10 12:25:00,27.4,22.3,30.38,SSE,157,0.0,0.0,81,0.00,,,0.00,WUHU21623XXSP,2014-01-10 17:25:00,
2014-01-10 12:30:00,27.7,22.9,30.38,SSE,157,0.0,0.0,82,0.00,,,0.00,WUHU21623XXSP,2014-01-10 17:30:00,
2014-01-10 12:35:00,27.7,22.9,30.38,SSE,157,0.0,0.0,82,0.00,,,0.00,WUHU21623XXSP,2014-01-10 17:35:00,
2014-01-10 12:40:00,27.9,23.1,30.38,SSE,157,0.0,0.0,82,0.00,,,0.00,WUHU21623XXSP,2014-01-10 17:40:00,
2014-01-10 12:45:00,27.9,23.1,30.38,SSE,157,0.0,0.0,82,0.00,,,0.00,WUHU21623XXSP,2014-01-10 17:45:00,
2014-01-10 12:50:00,27.9,23.1,30.38,SSE,157,0.0,0.0,82,0.00,,,0.00,WUHU21623XXSP,2014-01-10 17:50:00,
2014-01-10 12:55:00,28.3,23.5,30.38,SSE,157,0.0,0.0,82,0.00,,,0.00,WUHU21623XXSP,2014-01-10 17:55:00,
2014-01-10 13:00:00,28.3,23.5,30.38,SE,135,0.0,0.0,82,0.00,,,0.00,WUHU21623XXSP,2014-01-10 18:00:00,
2014-01-10 13:05:00,28.5,23.7,30.38,SE,135,0.0,0.0,82,0.00,,,0.00,WUHU21623XXSP,2014-01-10 18:05:00,
2014-01-10 13:10:00,28.6,23.8,30.38,SE,135,0.0,0.0,82,0.00,,,0.00,WUHU21623XXSP,2014-01-10 18:10:00,
2014-01-10 13:15:00,28.7,23.9,30.38,SE,135,0.0,0.0,82,0.00,,,0.00,WUHU21623XXSP,2014-01-10 18:15:00,
2014-01-10 13:20:00,28.9,24.1,30.38,SE,135,0.0,0.0,82,0.00,,,0.00,WUHU21623XXSP,2014-01-10 18:20:00,
2014-01-10 13:25:00,28.9,24.1,30.38,SE,135,0.0,0.0,82,0.00,,,0.00,WUHU21623XXSP,2014-01-10 18:25:00,
2014-01-10 13:30:00,28.9,24.1,30.38,SE,135,0.0,0.0,82,0.00,,,0.00,WUHU21623XXSP,2014-01-10 18:30:00,
2014-01-10 13:35:00,28.9,24.1,30.37,SE,135,0.0,0.0,82,0.00,,,0.00,WUHU21623XXSP,2014-01-10 18:35:00,
2014-01-10 13:40:00,29.1,24.3,30.37,SE,135,0.0,0.0,82,0.00,,,0.00,WUHU21623XXSP,2014-01-10 18:40:00,
2014-01-10 13:45:00,29.2,24.6,30.37,SE,135,0.0,0.0,83,0.00,,,0.00,WUHU21623XXSP,2014-01-10 18:45:00,
2014-01-10 13:50:00,29.2,24.6,30.37,SE,135,0.0,0.0,83,0.00,,,0.00,WUHU21623XXSP,2014-01-10 18:50:00,
2014-01-10 13:55:00,29.4,24.8,30.36,SE,135,0.0,0.0,83,0.00,,,0.00,WUHU21623XXSP,2014-01-10 18:55:00,
2014-01-10 14:00:00,29.2,24.7,30.36,SE,135,0.0,0.0,83,0.00,,,0.00,WUHU21623XXSP,2014-01-10 19:00:00,
2014-01-10 14:05:00,29.4,24.9,30.36,SE,135,0.0,0.0,83,0.00,,,0.00,WUHU21623XXSP,2014-01-10 19:05:00,
2014-01-10 14:10:00,29.4,24.9,30.37,SE,135,0.0,0.0,83,0.00,,,0.00,WUHU21623XXSP,2014-01-10 19:10:00,
2014-01-10 14:15:00,29.7,25.1,30.36,WSW,247,0.0,0.0,83,0.00,,,0.00,WUHU21623XXSP,2014-01-10 19:15:00,
2014-01-10 14:20:00,29.8,25.2,30.36,SE,135,0.0,0.0,83,0.00,,,0.00,WUHU21623XXSP,2014-01-10 19:20:00,
2014-01-10 14:25:00,29.8,25.2,30.36,SSW,202,0.0,0.0,83,0.00,,,0.00,WUHU21623XXSP,2014-01-10 19:25:00,
2014-01-10 14:30:00,29.8,25.3,30.36,NW,315,0.0,0.0,83,0.00,,,0.00,WUHU21623XXSP,2014-01-10 19:30:00,
2014-01-10 14:35:00,30.0,25.8,30.36,SW,225,0.0,0.0,84,0.00,,,0.00,WUHU21623XXSP,2014-01-10 19:35:00,
2014-01-10 14:40:00,30.1,25.8,30.36,ESE,112,0.0,0.0,84,0.00,,,0.00,WUHU21623XXSP,2014-01-10 19:40:00,
2014-01-10 14:45:00,30.1,25.8,30.36,ESE,112,0.0,0.0,84,0.00,,,0.00,WUHU21623XXSP,2014-01-10 19:45:00,
2014-01-10 14:50:00,30.1,25.8,30.36,ESE,112,0.0,0.0,84,0.00,,,0.00,WUHU21623XXSP,2014-01-10 19:50:00,
2014-01-10 14:55:00,30.1,25.8,30.35,ESE,112,0.0,0.0,84,0.00,,,0.00,WUHU21623XXSP,2014-01-10 19:55:00,
2014-01-10 15:00:00,30.1,25.9,30.36,ESE,112,0.0,0.0,84,0.00,,,0.00,WUHU21623XXSP,2014-01-10 20:00:00,
2014-01-10 15:05:00,30.2,26.2,30.35,ESE,112,0.0,0.0,85,0.00,,,0.00,WUHU21623XXSP,2014-01-10 20:05:00,
2014-01-10 15:10:00,30.2,26.2,30.36,ESE,112,0.0,0.0,85,0.00,,,0.00,WUHU21623XXSP,2014-01-10 20:10:00,
2014-01-10 15:15:00,30.4,26.4,30.36,ESE,112,0.0,0.0,85,0.00,,,0.00,WUHU21623XXSP,2014-01-10 20:15:00,
2014-01-10 15:20:00,30.4,26.4,30.35,ESE,112,0.0,0.0,85,0.00,,,0.00,WUHU21623XXSP,2014-01-10 20:20:00,
2014-01-10 15:25:00,30.4,26.5,30.36,ESE,112,0.0,0.0,85,0.00,,,0.00,WUHU21623XXSP,2014-01-10 20:25:00,
2014-01-10 15:30:00,30.5,26.5,30.35,ESE,112,0.0,0.0,85,0.00,,,0.00,WUHU21623XXSP,2014-01-10 20:30:00,
2014-01-10 15:35:00,30.3,26.3,30.35,ESE,112,0.0,0.0,85,0.00,,,0.00,WUHU21623XXSP,2014-01-10 20:35:00,
2014-01-10 15:40:00,30.3,26.0,30.35,ESE,112,0.0,0.0,84,0.00,,,0.00,WUHU21623XXSP,2014-01-10 20:40:00,
2014-01-10 15:45:00,30.6,26.6,30.35,East,90,0.0,0.0,85,0.00,,,0.00,WUHU21623XXSP,2014-01-10 20:45:00,
2014-01-10 15:50:00,30.4,26.4,30.34,East,90,0.0,0.0,85,0.00,,,0.00,WUHU21623XXSP,2014-01-10 20:50:00,
2014-01-10 15:55:00,30.4,26.4,30.34,East,90,0.0,0.0,85,0.00,,,0.00,WUHU21623XXSP,2014-01-10 20:55:00,
2014-01-10 16:00:00,30.6,26.6,30.34,East,90,0.0,0.0,85,0.00,,,0.00,WUHU21623XXSP,2014-01-10 21:00:00,
2014-01-10 16:05:00,30.5,26.5,30.35,East,90,0.0,0.0,85,0.00,,,0.00,WUHU21623XXSP,2014-01-10 21:05:00,
2014-01-10 16:10:00,30.7,26.7,30.34,East,90,0.0,0.0,85,0.00,,,0.00,WUHU21623XXSP,2014-01-10 21:10:00,
2014-01-10 16:15:00,30.7,26.7,30.34,East,90,0.0,0.0,85,0.00,,,0.00,WUHU21623XXSP,2014-01-10 21:15:00,
2014-01-10 16:20:00,30.9,26.9,30.35,East,90,0.0,0.0,85,0.00,,,0.00,WUHU21623XXSP,2014-01-10 21:20:00,
2014-01-10 16:25:00,30.8,26.8,30.34,East,90,0.0,0.0,85,0.00,,,0.00,WUHU21623XXSP,2014-01-10 21:25:00,
2014-01-10 16:30:00,30.8,26.8,30.34,East,90,0.0,0.0,85,0.00,,,0.00,WUHU21623XXSP,2014-01-10 21:30:00,
2014-01-10 16:35:00,30.8,26.8,30.33,East,90,0.0,0.0,85,0.00,,,0.00,WUHU21623XXSP,2014-01-10 21:35:00,
2014-01-10 16:40:00,30.8,26.8,30.34,East,90,0.0,0.0,85,0.00,,,0.00,WUHU21623XXSP,2014-01-10 21:40:00,
2014-01-10 16:45:00,30.9,26.9,30.34,East,90,0.0,0.0,85,0.00,,,0.00,WUHU21623XXSP,2014-01-10 21:45:00,
2014-01-10 16:50:00,30.9,26.9,30.33,East,90,0.0,0.0,85,0.00,,,0.00,WUHU21623XXSP,2014-01-10 21:50:00,
2014-01-10 16:55:00,30.9,26.9,30.34,East,90,0.0,0.0,85,0.00,,,0.00,WUHU21623XXSP,2014-01-10 21:55:00,
2014-01-10 17:01:00,31.0,27.0,30.33,East,90,0.0,0.0,85,0.00,,,0.00,WUHU21623XXSP,2014-01-10 22:01:00,
2014-01-10 17:06:00,31.0,27.0,30.33,North,0,0.0,0.0,85,0.00,,,0.00,WUHU21623XXSP,2014-01-10 22:06:00,
2014-01-10 17:11:00,31.0,27.0,30.33,North,0,0.0,0.0,85,0.00,,,0.00,WUHU21623XXSP,2014-01-10 22:11:00,
2014-01-10 17:16:00,31.3,27.3,30.33,North,0,0.0,0.0,85,0.00,,,0.00,WUHU21623XXSP,2014-01-10 22:16:00,
2014-01-10 17:21:00,31.3,27.3,30.33,North,0,0.0,0.0,85,0.00,,,0.00,WUHU21623XXSP,2014-01-10 22:21:00,
2014-01-10 17:26:00,31.3,27.3,30.33,North,0,0.0,0.0,85,0.00,,,0.00,WUHU21623XXSP,2014-01-10 22:26:00,
2014-01-10 17:31:00,31.4,27.4,30.33,North,0,0.0,0.0,85,0.00,,,0.00,WUHU21623XXSP,2014-01-10 22:31:00,
2014-01-10 17:36:00,31.4,27.4,30.33,North,0,0.0,0.0,85,0.00,,,0.00,WUHU21623XXSP,2014-01-10 22:36:00,
2014-01-10 17:41:00,31.4,27.4,30.33,North,0,0.0,0.0,85,0.00,,,0.00,WUHU21623XXSP,2014-01-10 22:41:00,
2014-01-10 17:46:00,31.5,27.5,30.33,North,0,0.0,0.0,85,0.00,,,0.00,WUHU21623XXSP,2014-01-10 22:46:00,
2014-01-10 17:51:00,31.5,27.5,30.33,North,0,0.0,0.0,85,0.00,,,0.00,WUHU21623XXSP,2014-01-10 22:51:00,
2014-01-10 17:56:00,31.5,27.5,30.33,North,0,0.0,0.0,85,0.00,,,0.00,WUHU21623XXSP,2014-01-10 22:56:00,
2014-01-10 18:01:00,31.6,27.5,30.33,North,0,0.0,0.0,85,0.00,,,0.00,WUHU21623XXSP,2014-01-10 23:01:00,
2014-01-10 18:06:00,31.6,27.9,30.33,North,0,0.0,0.0,86,0.00,,,0.00,WUHU21623XXSP,2014-01-10 23:06:00,
2014-01-10 18:11:00,31.6,27.9,30.33,North,0,0.0,0.0,86,0.00,,,0.00,WUHU21623XXSP,2014-01-10 23:11:00,
2014-01-10 18:16:00,31.7,27.9,30.33,North,0,0.0,0.0,86,0.00,,,0.00,WUHU21623XXSP,2014-01-10 23:16:00,
2014-01-10 18:21:00,31.7,28.0,30.33,North,0,0.0,0.0,86,0.00,,,0.00,WUHU21623XXSP,2014-01-10 23:21:00,
2014-01-10 18:26:00,31.7,28.0,30.34,North,0,0.0,0.0,86,0.00,,,0.00,WUHU21623XXSP,2014-01-10 23:26:00,
2014-01-10 18:31:00,31.8,28.0,30.34,North,0,0.0,0.0,86,0.00,,,0.00,WUHU21623XXSP,2014-01-10 23:31:00,
2014-01-10 18:36:00,31.8,28.1,30.34,North,0,0.0,0.0,86,0.00,,,0.00,WUHU21623XXSP,2014-01-10 23:36:00,
2014-01-10 18:41:00,31.8,28.1,30.34,North,0,0.0,0.0,86,0.00,,,0.00,WUHU21623XXSP,2014-01-10 23:41:00,
2014-01-10 18:46:00,31.9,28.2,30.34,North,0,0.0,0.0,86,0.00,,,0.00,WUHU21623XXSP,2014-01-10 23:46:00,
2014-01-10 18:51:00,31.9,28.2,30.34,North,0,0.0,0.0,86,0.00,,,0.00,WUHU21623XXSP,2014-01-10 23:51:00,
2014-01-10 18:56:00,32.0,28.2,30.34,North,0,0.0,0.0,86,0.00,,,0.00,WUHU21623XXSP,2014-01-10 23:56:00,
2014-01-10 19:01:00,32.0,28.3,30.34,North,0,0.0,0.0,86,0.00,,,0.00,WUHU21623XXSP,2014-01-11 00:01:00,
2014-01-10 19:06:00,32.0,28.3,30.34,NE,45,0.0,0.0,86,0.00,,,0.00,WUHU21623XXSP,2014-01-11 00:06:00,
2014-01-10 19:11:00,32.1,28.3,30.33,NE,45,0.0,0.0,86,0.00,,,0.00,WUHU21623XXSP,2014-01-11 00:11:00,
2014-01-10 19:16:00,32.1,28.4,30.33,ENE,67,0.0,0.0,86,0.00,,,0.00,WUHU21623XXSP,2014-01-11 00:16:00,
2014-01-10 19:21:00,32.2,28.4,30.33,ENE,67,0.0,0.0,86,0.00,,,0.00,WUHU21623XXSP,2014-01-11 00:21:00,
2014-01-10 19:26:00,32.2,28.4,30.33,ENE,67,0.0,0.0,86,0.00,,,0.00,WUHU21623XXSP,2014-01-11 00:26:00,
2014-01-10 19:31:00,32.2,28.5,30.33,ENE,67,0.0,0.0,86,0.00,,,0.00,WUHU21623XXSP,2014-01-11 00:31:00,
2014-01-10 19:36:00,32.3,28.5,30.33,ENE,67,0.0,0.0,86,0.00,,,0.00,WUHU21623XXSP,2014-01-11 00:36:00,
2014-01-10 19:41:00,32.3,28.6,30.33,ENE,67,0.0,0.0,86,0.00,,,0.00,WUHU21623XXSP,2014-01-11 00:41:00,
2014-01-10 19:46:00,32.6,28.8,30.33,ENE,67,0.0,0.0,86,0.00,,,0.00,WUHU21623XXSP,2014-01-11 00:46:00,
2014-01-10 19:51:00,32.6,28.8,30.33,ENE,67,0.0,0.0,86,0.00,,,0.00,WUHU21623XXSP,2014-01-11 00:51:00,
2014-01-10 19:55:00,32.6,28.9,30.33,ENE,67,0.0,0.0,86,0.00,,,0.00,WUHU21623XXSP,2014-01-11 00:55:00,
2014-01-10 20:00:00,32.7,28.9,30.32,ENE,67,0.0,0.0,86,0.00,,,0.00,WUHU21623XXSP,2014-01-11 01:00:00,
2014-01-10 20:05:00,32.7,29.0,30.32,ENE,67,0.0,0.0,86,0.00,,,0.00,WUHU21623XXSP,2014-01-11 01:05:00,
2014-01-10 20:10:00,32.8,29.0,30.32,ENE,67,0.0,0.0,86,0.00,,,0.00,WUHU21623XXSP,2014-01-11 01:10:00,
2014-01-10 20:15:00,32.8,29.0,30.31,ENE,67,0.0,0.0,86,0.00,,,0.00,WUHU21623XXSP,2014-01-11 01:15:00,
2014-01-10 20:20:00,32.8,29.1,30.31,ENE,67,0.0,0.0,86,0.00,,,0.00,WUHU21623XXSP,2014-01-11 01:20:00,
2014-01-10 20:25:00,32.9,29.1,30.31,ENE,67,0.0,0.0,86,0.00,,,0.00,WUHU21623XXSP,2014-01-11 01:25:00,
2014-01-10 20:30:00,32.9,29.2,30.31,ENE,67,0.0,0.0,86,0.00,,,0.00,WUHU21623XXSP,2014-01-11 01:30:00,
2014-01-10 20:35:00,33.0,29.2,30.31,ENE,67,0.0,0.0,86,0.00,,,0.00,WUHU21623XXSP,2014-01-11 01:35:00,
2014-01-10 20:40:00,33.0,29.2,30.31,NE,45,0.0,0.0,86,0.00,,,0.00,WUHU21623XXSP,2014-01-11 01:40:00,
2014-01-10 20:45:00,33.1,29.3,30.31,NE,45,0.0,0.0,86,0.00,,,0.00,WUHU21623XXSP,2014-01-11 01:45:00,
2014-01-10 20:50:00,33.1,29.3,30.31,NE,45,0.0,0.0,86,0.00,,,0.00,WUHU21623XXSP,2014-01-11 01:50:00,
2014-01-10 20:55:00,33.1,29.4,30.31,NE,45,0.0,0.0,86,0.00,,,0.00,WUHU21623XXSP,2014-01-11 01:55:00,
2014-01-10 21:00:00,33.3,29.5,30.31,NE,45,0.0,0.0,86,0.00,,,0.00,WUHU21623XXSP,2014-01-11 02:00:00,
2014-01-10 21:05:00,33.3,29.5,30.31,NE,45,0.0,0.0,86,0.00,,,0.00,WUHU21623XXSP,2014-01-11 02:05:00,
2014-01-10 21:10:00,33.4,29.6,30.31,NE,45,0.0,0.0,86,0.00,,,0.00,WUHU21623XXSP,2014-01-11 02:10:00,
2014-01-10 21:15:00,33.4,29.6,30.30,NE,45,0.0,0.0,86,0.00,,,0.00,WUHU21623XXSP,2014-01-11 02:15:00,
2014-01-10 21:20:00,33.4,29.7,30.30,NE,45,0.0,0.0,86,0.00,,,0.00,WUHU21623XXSP,2014-01-11 02:20:00,
2014-01-10 21:25:00,33.5,30.0,30.29,NE,45,0.0,0.0,87,0.00,,,0.00,WUHU21623XXSP,2014-01-11 02:25:00,
2014-01-10 21:30:00,33.5,30.0,30.29,East,90,0.0,0.0,87,0.00,,,0.00,WUHU21623XXSP,2014-01-11 02:30:00,
2014-01-10 21:35:00,33.6,30.1,30.29,East,90,0.0,0.0,87,0.00,,,0.00,WUHU21623XXSP,2014-01-11 02:35:00,
2014-01-10 21:40:00,33.6,30.1,30.29,NE,45,0.0,0.0,87,0.00,,,0.00,WUHU21623XXSP,2014-01-11 02:40:00,
2014-01-10 21:45:00,33.6,30.2,30.29,NNW,337,0.0,0.0,87,0.00,,,0.00,WUHU21623XXSP,2014-01-11 02:45:00,
2014-01-10 21:50:00,33.7,30.2,30.28,NNW,337,0.0,0.0,87,0.00,,,0.00,WUHU21623XXSP,2014-01-11 02:50:00,
2014-01-10 21:55:00,33.7,30.2,30.28,NNW,337,0.0,0.0,87,0.00,,,0.00,WUHU21623XXSP,2014-01-11 02:55:00,
2014-01-10 22:00:00,33.8,30.3,30.28,NNW,337,0.0,0.0,87,0.00,,,0.00,WUHU21623XXSP,2014-01-11 03:00:00,
2014-01-10 22:05:00,33.8,30.3,30.28,NNW,337,0.0,0.0,87,0.00,,,0.00,WUHU21623XXSP,2014-01-11 03:05:00,
2014-01-10 22:10:00,33.9,30.4,30.28,NNW,337,0.0,0.0,87,0.00,,,0.00,WUHU21623XXSP,2014-01-11 03:10:00,
2014-01-10 22:15:00,33.9,30.4,30.28,NNW,337,0.0,0.0,87,0.00,,,0.00,WUHU21623XXSP,2014-01-11 03:15:00,
2014-01-10 22:20:00,34.0,30.5,30.28,NNW,337,0.0,0.0,87,0.00,,,0.00,WUHU21623XXSP,2014-01-11 03:20:00,
2014-01-10 22:25:00,34.0,30.5,30.27,NNW,337,0.0,0.0,87,0.00,,,0.00,WUHU21623XXSP,2014-01-11 03:25:00,
2014-01-10 22:30:00,34.0,30.5,30.28,NNW,337,0.0,0.0,87,0.00,,,0.00,WUHU21623XXSP,2014-01-11 03:30:00,
2014-01-10 22:35:00,34.1,30.6,30.27,NNW,337,0.0,0.0,87,0.00,,,0.00,WUHU21623XXSP,2014-01-11 03:35:00,
2014-01-10 22:40:00,34.1,30.6,30.27,NNW,337,0.0,0.0,87,0.00,,,0.00,WUHU21623XXSP,2014-01-11 03:40:00,
2014-01-10 22:45:00,34.2,30.7,30.26,NNW,337,0.0,0.0,87,0.00,,,0.00,WUHU21623XXSP,2014-01-11 03:45:00,
2014-01-10 22:50:00,34.2,30.7,30.27,NNW,337,0.0,0.0,87,0.00,,,0.00,WUHU21623XXSP,2014-01-11 03:50:00,
2014-01-10 22:55:00,34.3,30.8,30.26,NNW,337,0.0,0.0,87,0.00,,,0.00,WUHU21623XXSP,2014-01-11 03:55:00,
2014-01-10 23:00:00,34.3,30.8,30.25,NNW,337,0.0,0.0,87,0.00,,,0.00,WUHU21623XXSP,2014-01-11 04:00:00,
2014-01-10 23:05:00,34.3,30.8,30.26,NNW,337,0.0,0.0,87,0.00,,,0.00,WUHU21623XXSP,2014-01-11 04:05:00,
2014-01-10 23:10:00,34.2,30.7,30.25,NNW,337,0.0,0.0,87,0.00,,,0.00,WUHU21623XXSP,2014-01-11 04:10:00,
2014-01-10 23:15:00,34.2,30.7,30.25,NNW,337,0.0,0.0,87,0.00,,,0.00,WUHU21623XXSP,2014-01-11 04:15:00,
2014-01-10 23:20:00,34.1,30.6,30.25,NNW,337,0.0,0.0,87,0.00,,,0.00,WUHU21623XXSP,2014-01-11 04:20:00,
2014-01-10 23:25:00,34.1,30.6,30.24,NNW,337,0.0,0.0,87,0.00,,,0.00,WUHU21623XXSP,2014-01-11 04:25:00,
2014-01-10 23:30:00,34.0,30.5,30.25,NNW,337,0.0,0.0,87,0.00,,,0.00,WUHU21623XXSP,2014-01-11 04:30:00,
2014-01-10 23:35:00,34.0,30.5,30.24,NNW,337,0.0,0.0,87,0.00,,,0.00,WUHU21623XXSP,2014-01-11 04:35:00,
2014-01-10 23:40:00,34.0,30.5,30.24,NNW,337,0.0,0.0,87,0.00,,,0.00,WUHU21623XXSP,2014-01-11 04:40:00,
2014-01-10 23:45:00,33.9,30.4,30.24,NNW,337,0.0,0.0,87,0.00,,,0.00,WUHU21623XXSP,2014-01-11 04:45:00,
2014-01-10 23:50:00,33.9,30.4,30.24,NNW,337,0.0,0.0,87,0.00,,,0.00,WUHU21623XXSP,2014-01-11 04:50:00,
2014-01-10 23:55:00,33.8,30.3,30.23,NNW,337,0.0,0.0,87,0.00,,,0.00,WUHU21623XXSP,2014-01-11 04:55:00,